Scawby, United Kingdom
Current Conditions -  °F | °C
As of 8:50 PM on Tuesday 25 Nov 2014 (Local Time) from EGNJ Reporting Station
Broken Clouds Broken Clouds  
Wind Chill:   Ceiling: 4000
Heat Index:   Visibility: 4mi
Dew Point:   Wind: 2mph
Humidity: 93%   Direction: 350°N
Pressure: 30.12"   Gusts: NA
Location:  53.54°N, 0.54°W
Report Text: EGNJ 252050Z 35002KT 6000 FEW018 BKN040 07/06 Q1020
Loading
Personal Weather Stations






























Interactive Weather Map New forecast layout! Learn more

10-Day Weather Forecast

Advertisements
Track Severe Weather on mobile